Time;durP1;ratioP1;P1;durP2;ratioP2;P2;SDS_P1;SDS_P2;PMS_P1;PMS_P2;Temp;Humidity;BMP_temperature;BMP_pressure;BME280_temperature;BME280_humidity;BME280_pressure;Samples;Min_cycle;Max_cycle;Signal;HPM_P1;HPM_P2
2024/04/02 00:01:55;;;;;;;7.33;6.93;;;7.60;99.90;;;;;;5014554;28;20192;-75
2024/04/02 00:04:23;;;;;;;7.40;7.00;;;7.60;99.90;;;;;;5031918;28;20214;-75
2024/04/02 00:06:49;;;;;;;6.97;6.63;;;7.60;99.90;;;;;;5014434;28;20227;-75
2024/04/02 00:09:16;;;;;;;7.47;7.07;;;7.60;99.90;;;;;;5031801;28;20207;-75
2024/04/02 00:11:41;;;;;;;7.60;7.07;;;7.60;99.90;;;;;;5032056;28;20255;-76
2024/04/02 00:14:08;;;;;;;7.40;6.90;;;7.60;99.90;;;;;;5013830;28;20246;-75
2024/04/02 00:16:34;;;;;;;7.50;7.10;;;7.60;99.90;;;;;;5031459;28;20207;-75
2024/04/02 00:19:01;;;;;;;7.20;6.80;;;7.60;99.90;;;;;;5032058;28;20202;-75
2024/04/02 00:21:28;;;;;;;7.10;6.80;;;7.60;99.90;;;;;;5031792;28;20194;-75
2024/04/02 00:23:55;;;;;;;7.50;7.10;;;7.70;99.90;;;;;;5031492;28;20294;-75
2024/04/02 00:26:22;;;;;;;7.80;7.20;;;7.70;99.90;;;;;;5031676;28;20195;-75
2024/04/02 00:28:49;;;;;;;7.50;7.10;;;7.70;99.90;;;;;;5031210;28;20710;-75
2024/04/02 00:31:15;;;;;;;7.70;7.30;;;7.70;99.90;;;;;;5014062;28;20211;-75
2024/04/02 00:33:42;;;;;;;7.90;7.40;;;7.70;99.90;;;;;;5031958;28;20204;-75
2024/04/02 00:36:08;;;;;;;8.00;7.50;;;7.70;99.90;;;;;;5031371;28;20200;-75
2024/04/02 00:38:36;;;;;;;7.77;7.37;;;7.80;99.90;;;;;;5031199;28;20209;-76
2024/04/02 00:41:02;;;;;;;7.93;7.50;;;7.80;99.90;;;;;;5013936;28;20219;-75
2024/04/02 00:43:29;;;;;;;7.80;7.40;;;7.80;99.90;;;;;;5031035;28;20247;-76
2024/04/02 00:45:55;;;;;;;7.30;6.90;;;7.90;99.90;;;;;;5013317;28;20238;-75
2024/04/02 00:48:23;;;;;;;7.90;7.50;;;7.90;99.90;;;;;;5013674;28;20248;-75
2024/04/02 00:50:49;;;;;;;7.73;7.30;;;7.90;99.90;;;;;;5031293;28;20589;-75
2024/04/02 00:53:16;;;;;;;7.70;7.30;;;8.00;99.90;;;;;;5013586;28;20306;-75
2024/04/02 00:55:45;;;;;;;7.80;7.40;;;8.00;99.90;;;;;;5013107;28;20199;-75
2024/04/02 00:58:12;;;;;;;7.80;7.40;;;8.00;99.90;;;;;;5012909;28;20196;-75
2024/04/02 01:00:40;;;;;;;7.70;7.30;;;8.00;99.90;;;;;;5031412;28;20283;-76
2024/04/02 01:03:07;;;;;;;7.93;7.50;;;8.00;99.90;;;;;;5031424;28;20215;-75
2024/04/02 01:05:35;;;;;;;7.97;7.57;;;8.10;99.90;;;;;;5030825;28;20314;-75
2024/04/02 01:08:03;;;;;;;7.77;7.30;;;8.10;99.90;;;;;;5030890;28;20253;-76
2024/04/02 01:10:30;;;;;;;7.97;7.50;;;8.10;99.90;;;;;;5031404;28;20249;-76
2024/04/02 01:12:59;;;;;;;7.80;7.30;;;8.20;99.90;;;;;;5012884;28;20223;-75
2024/04/02 01:15:25;;;;;;;7.77;7.37;;;8.20;99.90;;;;;;5013574;28;20671;-75
2024/04/02 01:17:52;;;;;;;7.73;7.33;;;8.20;99.90;;;;;;5030827;28;20189;-76
2024/04/02 01:20:18;;;;;;;7.53;7.13;;;8.30;99.90;;;;;;5013791;28;20203;-75
2024/04/02 01:22:45;;;;;;;8.07;7.50;;;8.20;99.90;;;;;;5013297;28;20242;-75
2024/04/02 01:25:10;;;;;;;7.40;7.00;;;8.20;99.90;;;;;;5013196;28;20262;-76
2024/04/02 01:27:39;;;;;;;7.83;7.43;;;8.10;99.90;;;;;;5031115;28;20195;-75
2024/04/02 01:30:06;;;;;;;8.10;7.60;;;8.10;99.90;;;;;;5030380;28;20192;-76
2024/04/02 01:32:32;;;;;;;7.97;7.37;;;8.10;99.90;;;;;;5031184;28;20246;-76
2024/04/02 01:34:58;;;;;;;7.60;7.20;;;8.00;99.90;;;;;;5012603;28;20219;-75
2024/04/02 01:37:25;;;;;;;7.77;7.37;;;8.00;99.90;;;;;;5013054;28;20686;-76
2024/04/02 01:39:51;;;;;;;7.70;7.30;;;7.90;99.90;;;;;;5031029;28;20200;-75
2024/04/02 01:42:17;;;;;;;7.93;7.43;;;7.90;99.90;;;;;;5013253;28;20663;-75
2024/04/02 01:44:45;;;;;;;7.80;7.40;;;7.90;99.90;;;;;;5030520;28;20703;-75
2024/04/02 01:47:11;;;;;;;8.03;7.63;;;7.90;99.90;;;;;;5009937;28;20761;-76
2024/04/02 01:49:37;;;;;;;7.60;7.20;;;7.90;99.90;;;;;;5024240;28;20200;-75
2024/04/02 01:52:04;;;;;;;7.97;7.47;;;7.90;99.90;;;;;;5013037;28;20230;-75
2024/04/02 01:54:30;;;;;;;7.57;7.13;;;8.00;99.90;;;;;;5012657;28;20698;-75
2024/04/02 01:56:57;;;;;;;7.70;7.30;;;7.90;99.90;;;;;;5012979;28;20257;-76
2024/04/02 01:59:24;;;;;;;7.83;7.43;;;8.00;99.90;;;;;;5012681;28;20723;-75
2024/04/02 02:01:53;;;;;;;7.97;7.57;;;8.10;99.90;;;;;;5012932;28;20204;-75
2024/04/02 02:04:18;;;;;;;7.93;7.43;;;8.10;99.90;;;;;;5012728;28;20224;-76
2024/04/02 02:06:45;;;;;;;7.60;7.20;;;8.10;99.90;;;;;;5030412;28;20198;-75
2024/04/02 02:09:13;;;;;;;7.47;7.07;;;8.20;99.90;;;;;;5033790;28;20206;-76
2024/04/02 02:11:39;;;;;;;7.73;7.33;;;8.20;99.90;;;;;;5016431;28;20220;-76
2024/04/02 02:14:05;;;;;;;7.77;7.37;;;8.20;99.90;;;;;;5033489;28;20236;-75
2024/04/02 02:16:32;;;;;;;7.80;7.40;;;8.20;99.90;;;;;;5032301;28;20207;-75
2024/04/02 02:18:59;;;;;;;7.60;7.20;;;8.20;99.90;;;;;;5016482;28;20204;-75
2024/04/02 02:21:26;;;;;;;7.90;7.40;;;8.20;99.90;;;;;;5016186;28;20614;-76
2024/04/02 02:23:51;;;;;;;7.70;7.30;;;8.30;99.90;;;;;;5034305;28;20219;-75
2024/04/02 02:26:19;;;;;;;8.00;7.60;;;8.30;99.90;;;;;;5016179;28;20258;-76
2024/04/02 02:28:45;;;;;;;7.40;7.00;;;8.30;99.90;;;;;;5016185;28;20249;-76
2024/04/02 02:31:12;;;;;;;7.60;7.20;;;8.20;99.90;;;;;;5016065;28;20200;-76
2024/04/02 02:33:38;;;;;;;8.00;7.50;;;8.30;99.90;;;;;;5007941;28;20239;-76
2024/04/02 02:36:06;;;;;;;8.00;7.60;;;8.30;99.90;;;;;;5033790;28;20230;-76
2024/04/02 02:38:32;;;;;;;8.00;7.50;;;8.30;99.90;;;;;;5033665;28;20234;-76
2024/04/02 02:41:00;;;;;;;7.70;7.30;;;8.30;99.90;;;;;;5033907;28;20631;-76
2024/04/02 02:43:26;;;;;;;7.80;7.40;;;8.30;99.90;;;;;;5010306;28;20311;-75
2024/04/02 02:45:52;;;;;;;7.80;7.30;;;8.30;99.90;;;;;;5033109;28;20274;-75
2024/04/02 02:48:18;;;;;;;7.50;7.10;;;8.30;99.90;;;;;;5033433;28;20234;-75
2024/04/02 02:50:45;;;;;;;7.27;6.87;;;8.40;99.90;;;;;;5033529;28;20271;-75
2024/04/02 02:53:12;;;;;;;7.70;7.30;;;8.40;99.90;;;;;;5034208;28;20243;-80
2024/04/02 02:55:39;;;;;;;7.73;7.33;;;8.40;99.90;;;;;;5033548;28;20196;-77
2024/04/02 02:58:05;;;;;;;7.80;7.40;;;8.40;99.90;;;;;;5013774;28;20608;-77
2024/04/02 03:00:32;;;;;;;8.20;7.80;;;8.40;99.90;;;;;;5003567;28;20258;-77
2024/04/02 03:02:58;;;;;;;8.00;7.47;;;8.40;99.90;;;;;;5032931;28;20250;-77
2024/04/02 03:05:25;;;;;;;7.90;7.50;;;8.40;99.90;;;;;;5030917;28;20192;-77
2024/04/02 03:07:50;;;;;;;8.07;7.60;;;8.40;99.90;;;;;;5013572;28;20224;-77
2024/04/02 03:10:19;;;;;;;8.10;7.60;;;8.40;99.90;;;;;;5031092;28;20665;-77
2024/04/02 03:12:44;;;;;;;8.00;7.60;;;8.40;99.90;;;;;;5009593;28;20212;-77
2024/04/02 03:15:11;;;;;;;8.10;7.70;;;8.40;99.90;;;;;;5014549;28;20262;-77
2024/04/02 03:17:37;;;;;;;7.47;7.00;;;8.40;99.90;;;;;;5029509;28;20196;-81
2024/04/02 03:20:04;;;;;;;7.03;6.53;;;8.40;99.90;;;;;;5014722;28;20552;-77
2024/04/02 03:22:30;;;;;;;6.93;6.60;;;8.40;99.90;;;;;;5033228;28;20223;-77
2024/04/02 03:24:57;;;;;;;6.90;6.60;;;8.40;99.90;;;;;;5032561;28;20266;-77
2024/04/02 03:27:24;;;;;;;6.77;6.43;;;8.30;99.90;;;;;;5032812;28;20249;-77
2024/04/02 03:29:51;;;;;;;7.77;6.70;;;8.30;99.90;;;;;;5031657;28;20196;-76
2024/04/02 03:32:17;;;;;;;7.03;6.63;;;8.20;99.90;;;;;;5031861;28;20277;-76
2024/04/02 03:34:44;;;;;;;7.00;6.60;;;8.20;99.90;;;;;;5032457;28;20215;-77
2024/04/02 03:37:35;;;;;;;7.80;7.40;;;8.20;99.90;;;;;;5015002;28;20269;-77
2024/04/02 03:40:03;;;;;;;8.07;7.57;;;8.20;99.90;;;;;;5001598;28;20638;-77
2024/04/02 03:42:31;;;;;;;7.80;7.40;;;8.20;99.90;;;;;;5032502;28;20218;-76
2024/04/02 03:44:58;;;;;;;8.00;7.60;;;8.10;99.90;;;;;;5015311;28;20228;-75
2024/04/02 03:47:27;;;;;;;8.40;7.80;;;8.10;99.90;;;;;;5029729;28;20282;-75
2024/04/02 03:49:53;;;;;;;8.20;7.70;;;8.10;99.90;;;;;;5014076;28;20208;-75
2024/04/02 03:52:19;;;;;;;7.90;7.50;;;8.10;99.90;;;;;;5031848;28;20235;-75
2024/04/02 03:54:45;;;;;;;7.80;7.40;;;8.20;99.90;;;;;;5031157;28;20705;-75
2024/04/02 03:57:12;;;;;;;7.80;7.30;;;8.20;99.90;;;;;;5013965;28;20261;-75
2024/04/02 03:59:39;;;;;;;8.00;7.60;;;8.20;99.90;;;;;;5031920;28;20689;-75
2024/04/02 04:02:06;;;;;;;7.90;7.50;;;8.20;99.90;;;;;;5031729;28;20196;-75
2024/04/02 04:04:32;;;;;;;8.00;7.60;;;8.20;99.90;;;;;;5031115;28;20754;-75
2024/04/02 04:06:59;;;;;;;8.50;8.10;;;8.10;99.90;;;;;;5013809;28;20303;-75
2024/04/02 04:09:25;;;;;;;8.70;8.20;;;8.10;99.90;;;;;;5031692;28;20242;-75
2024/04/02 04:11:53;;;;;;;8.80;8.30;;;8.00;99.90;;;;;;5031195;28;20207;-75
2024/04/02 04:14:18;;;;;;;8.67;8.23;;;8.00;99.90;;;;;;5031899;28;20253;-75
2024/04/02 04:16:46;;;;;;;8.77;8.27;;;8.00;99.90;;;;;;5013251;28;20192;-74
2024/04/02 04:19:12;;;;;;;8.77;8.27;;;7.90;99.90;;;;;;5031227;28;20208;-75
2024/04/02 04:21:39;;;;;;;8.93;8.43;;;7.90;99.90;;;;;;5031427;28;20198;-75
2024/04/02 04:24:05;;;;;;;8.63;8.10;;;7.90;99.90;;;;;;5013248;28;20306;-74
2024/04/02 04:26:32;;;;;;;8.50;8.00;;;8.00;99.90;;;;;;5031037;28;20200;-75
2024/04/02 04:28:58;;;;;;;8.57;8.07;;;8.00;99.90;;;;;;5031430;28;20667;-75
2024/04/02 04:31:24;;;;;;;8.40;7.93;;;8.10;99.90;;;;;;5031026;28;20198;-75
2024/04/02 04:33:52;;;;;;;8.40;8.00;;;8.10;99.90;;;;;;5013218;28;20281;-75
2024/04/02 04:36:18;;;;;;;8.40;7.90;;;8.10;99.90;;;;;;5031097;28;20203;-75
2024/04/02 04:38:44;;;;;;;8.30;7.90;;;8.10;99.90;;;;;;5013128;28;20254;-75
2024/04/02 04:41:11;;;;;;;8.50;8.03;;;8.00;99.90;;;;;;5030695;28;20208;-75
2024/04/02 04:43:37;;;;;;;8.50;8.10;;;8.00;99.90;;;;;;5030910;28;20223;-75
2024/04/02 04:46:04;;;;;;;9.10;8.60;;;7.90;99.90;;;;;;5013024;28;20623;-75
2024/04/02 04:48:31;;;;;;;8.30;7.90;;;7.90;99.90;;;;;;5013048;28;20206;-75
2024/04/02 04:51:00;;;;;;;8.60;8.10;;;7.90;99.90;;;;;;5030983;28;20278;-75
2024/04/02 04:53:27;;;;;;;8.40;7.93;;;7.90;99.90;;;;;;5022389;28;20216;-75
2024/04/02 04:55:58;;;;;;;9.00;8.50;;;8.00;99.90;;;;;;5009210;28;20655;-75
2024/04/02 04:58:25;;;;;;;8.70;8.20;;;8.00;99.90;;;;;;5012770;28;20292;-75
2024/04/02 05:00:51;;;;;;;8.50;8.10;;;8.10;99.90;;;;;;5013208;28;20207;-75
2024/04/02 05:03:17;;;;;;;8.67;8.27;;;8.10;99.90;;;;;;5011874;28;20281;-75
2024/04/02 05:05:44;;;;;;;8.77;8.33;;;8.20;99.90;;;;;;5030910;28;20204;-75
2024/04/02 05:08:25;;;;;;;7.90;7.40;;;8.20;99.90;;;;;;5012688;28;20234;-75
2024/04/02 05:10:53;;;;;;;7.70;7.30;;;8.30;99.90;;;;;;5013497;28;20204;-75
2024/04/02 05:13:20;;;;;;;7.77;7.37;;;8.30;99.90;;;;;;5030467;28;20224;-75
2024/04/02 05:15:47;;;;;;;7.97;7.57;;;8.40;99.90;;;;;;5013094;28;20194;-75
2024/04/02 05:18:13;;;;;;;7.97;7.57;;;8.40;99.90;;;;;;5030468;28;20203;-75
2024/04/02 05:20:40;;;;;;;7.67;7.23;;;8.50;99.90;;;;;;5012973;28;20188;-75
2024/04/02 05:23:06;;;;;;;8.20;7.70;;;8.50;99.90;;;;;;5012593;28;20227;-75
2024/04/02 05:25:34;;;;;;;7.60;7.20;;;8.50;99.90;;;;;;5030418;28;20656;-75
2024/04/02 05:28:00;;;;;;;7.57;7.17;;;8.50;99.90;;;;;;5030744;28;20674;-75
2024/04/02 05:30:27;;;;;;;8.20;7.70;;;8.50;99.90;;;;;;5013075;28;20253;-75
2024/04/02 05:32:54;;;;;;;7.90;7.50;;;8.50;99.90;;;;;;5013100;28;20227;-75
2024/04/02 05:35:20;;;;;;;7.80;7.40;;;8.50;99.90;;;;;;5030222;28;20286;-75
2024/04/02 05:37:51;;;;;;;7.70;7.30;;;8.60;99.90;;;;;;5012302;28;20231;-75
2024/04/02 05:40:17;;;;;;;8.00;7.60;;;8.60;99.90;;;;;;5030680;28;20254;-75
2024/04/02 05:42:46;;;;;;;7.70;7.30;;;8.60;99.90;;;;;;5031369;28;20719;-75
2024/04/02 05:45:12;;;;;;;7.77;7.37;;;8.60;99.90;;;;;;5016133;28;20200;-75
2024/04/02 05:47:38;;;;;;;7.80;7.40;;;8.70;99.90;;;;;;5016474;28;20196;-75
2024/04/02 05:50:05;;;;;;;8.10;7.53;;;8.80;99.90;;;;;;5034669;28;20204;-75
2024/04/02 05:52:32;;;;;;;7.83;7.43;;;8.80;99.90;;;;;;5034130;28;20203;-75
2024/04/02 05:54:58;;;;;;;7.70;7.30;;;8.90;99.90;;;;;;5015814;28;20604;-75
2024/04/02 05:57:25;;;;;;;7.73;7.33;;;9.00;99.90;;;;;;5033964;28;20200;-75
2024/04/02 05:59:52;;;;;;;7.60;7.20;;;9.00;99.90;;;;;;5016818;28;20207;-75
2024/04/02 06:02:20;;;;;;;7.80;7.40;;;9.00;99.90;;;;;;5016506;28;20695;-75
2024/04/02 06:04:46;;;;;;;8.27;7.70;;;9.00;99.90;;;;;;5015799;28;20780;-75
2024/04/02 06:07:13;;;;;;;8.33;7.83;;;9.00;99.90;;;;;;5033747;28;20204;-75
2024/04/02 06:09:39;;;;;;;8.50;8.00;;;9.00;99.90;;;;;;5034361;28;20279;-75
2024/04/02 06:12:07;;;;;;;8.40;7.90;;;9.00;99.90;;;;;;5034010;28;20192;-75
2024/04/02 06:14:33;;;;;;;8.20;7.73;;;9.00;99.90;;;;;;5024912;28;20224;-75
2024/04/02 06:17:01;;;;;;;8.37;7.77;;;9.00;99.90;;;;;;5028769;28;20567;-80
2024/04/02 06:19:28;;;;;;;8.10;7.70;;;9.00;99.90;;;;;;5034177;28;20196;-78
2024/04/02 06:21:54;;;;;;;8.20;7.67;;;9.10;99.90;;;;;;5013476;28;20287;-76
2024/04/02 06:24:20;;;;;;;8.40;7.80;;;9.10;99.90;;;;;;5027768;28;20318;-76
2024/04/02 06:26:47;;;;;;;9.83;9.23;;;9.20;99.90;;;;;;5015567;28;20310;-75
2024/04/02 06:29:13;;;;;;;7.93;7.53;;;9.20;99.90;;;;;;5016063;28;20253;-76
2024/04/02 06:31:39;;;;;;;8.13;7.73;;;9.30;99.90;;;;;;5024340;28;20204;-76
2024/04/02 06:34:06;;;;;;;7.73;7.33;;;9.40;99.90;;;;;;5028091;28;20764;-76
2024/04/02 06:36:33;;;;;;;8.43;7.93;;;9.50;99.90;;;;;;5028842;28;20204;-76
2024/04/02 06:38:59;;;;;;;9.80;9.30;;;9.70;99.90;;;;;;5033625;28;20198;-76
2024/04/02 06:41:26;;;;;;;8.90;8.40;;;10.00;99.90;;;;;;5015942;28;20582;-76
2024/04/02 06:43:52;;;;;;;9.07;8.43;;;10.40;99.90;;;;;;5033088;28;20225;-76
2024/04/02 06:46:18;;;;;;;8.03;7.43;;;10.70;99.90;;;;;;5015248;28;20259;-76
2024/04/02 06:48:44;;;;;;;8.80;8.30;;;10.90;99.90;;;;;;5015696;28;20206;-76
2024/04/02 06:51:13;;;;;;;8.60;8.10;;;11.10;99.90;;;;;;5033086;28;20204;-78
2024/04/02 06:53:39;;;;;;;7.80;7.40;;;11.20;99.90;;;;;;5022643;28;20213;-78
2024/04/02 06:56:07;;;;;;;8.00;7.60;;;11.20;99.90;;;;;;5027973;28;20193;-78
2024/04/02 06:58:33;;;;;;;8.90;8.40;;;11.40;99.90;;;;;;5019177;28;20678;-79
2024/04/02 07:01:00;;;;;;;8.90;8.30;;;11.30;99.90;;;;;;5033844;28;20208;-78
2024/04/02 07:03:26;;;;;;;8.60;8.13;;;11.20;99.90;;;;;;5036123;28;20214;-77
2024/04/02 07:05:54;;;;;;;7.97;7.47;;;11.30;99.90;;;;;;5030647;28;20623;-78
2024/04/02 07:08:24;;;;;;;7.63;7.07;;;11.70;99.90;;;;;;5030268;28;20227;-78
2024/04/02 07:10:59;;;;;;;1.90;1.80;;;11.90;99.90;;;;;;5037482;28;20191;-79
2024/04/02 07:13:25;;;;;;;3.23;3.03;;;12.20;99.90;;;;;;5035950;28;20305;-79
2024/04/02 07:15:53;;;;;;;2.10;2.00;;;12.30;99.90;;;;;;5021834;28;20227;-79
2024/04/02 07:18:19;;;;;;;7.53;7.13;;;12.50;99.90;;;;;;5037121;28;20200;-79
2024/04/02 07:20:46;;;;;;;6.80;6.40;;;12.50;99.90;;;;;;5034086;28;20663;-80
2024/04/02 07:23:11;;;;;;;3.10;2.90;;;12.50;99.90;;;;;;5014708;28;20226;-79
2024/04/02 07:25:40;;;;;;;3.27;3.10;;;12.30;99.90;;;;;;5032936;28;20196;-80
2024/04/02 07:28:06;;;;;;;4.57;4.37;;;12.20;99.90;;;;;;5013669;28;20217;-78
2024/04/02 07:30:33;;;;;;;7.37;6.97;;;12.10;99.90;;;;;;5033367;28;20197;-79
2024/04/02 07:32:58;;;;;;;7.60;7.10;;;11.80;99.90;;;;;;5028736;28;20219;-80
2024/04/02 07:35:25;;;;;;;7.87;7.37;;;11.60;99.90;;;;;;5025091;28;20207;-78
2024/04/02 07:37:51;;;;;;;8.10;7.70;;;11.40;99.90;;;;;;5009271;28;20236;-80
2024/04/02 07:40:18;;;;;;;7.97;7.47;;;11.40;99.90;;;;;;5012923;28;20219;-80
2024/04/02 07:42:45;;;;;;;7.70;7.30;;;11.30;99.90;;;;;;5015036;28;20212;-79
2024/04/02 07:45:15;;;;;;;7.70;7.20;;;11.20;99.90;;;;;;5014615;28;20210;-80
2024/04/02 07:47:46;;;;;;;7.43;7.03;;;11.10;99.90;;;;;;5005938;28;20199;-79
2024/04/02 07:50:12;;;;;;;7.33;6.87;;;11.20;99.90;;;;;;5014710;28;20297;-76
2024/04/02 07:52:38;;;;;;;7.50;7.10;;;11.20;99.90;;;;;;5031406;28;20204;-76
2024/04/02 07:55:05;;;;;;;7.77;7.37;;;11.20;99.90;;;;;;5031203;28;20195;-76
2024/04/02 07:57:31;;;;;;;7.37;6.97;;;11.30;99.90;;;;;;5031896;28;20206;-76
2024/04/02 07:59:59;;;;;;;8.10;7.60;;;11.30;99.90;;;;;;5031787;28;20559;-75
2024/04/02 08:02:25;;;;;;;7.70;7.30;;;11.10;99.90;;;;;;5014303;28;20709;-78
2024/04/02 08:04:52;;;;;;;8.00;7.40;;;10.90;99.90;;;;;;5015672;28;20228;-78
2024/04/02 08:07:18;;;;;;;8.00;7.30;;;10.80;99.90;;;;;;5014584;28;20234;-78
2024/04/02 08:09:45;;;;;;;7.27;6.87;;;10.80;99.90;;;;;;5031984;28;20212;-78
2024/04/02 08:12:12;;;;;;;4.90;4.60;;;10.60;99.90;;;;;;5013700;28;20682;-79
2024/04/02 08:14:39;;;;;;;7.73;7.30;;;10.90;99.90;;;;;;5031011;28;20281;-79
2024/04/02 08:17:06;;;;;;;8.40;7.90;;;11.40;99.90;;;;;;5016360;28;20238;-79
2024/04/02 08:19:33;;;;;;;5.30;5.00;;;12.10;99.90;;;;;;5014020;28;20253;-79
2024/04/02 08:21:59;;;;;;;7.80;7.13;;;12.90;99.90;;;;;;5031382;28;20199;-79
2024/04/02 08:24:26;;;;;;;4.67;4.37;;;13.40;99.90;;;;;;5031296;28;20208;-77
2024/04/02 08:26:52;;;;;;;3.50;3.20;;;13.80;99.90;;;;;;5014390;28;20209;-77
2024/04/02 08:29:19;;;;;;;6.53;6.07;;;14.20;99.90;;;;;;5014230;28;20222;-77
2024/04/02 08:31:45;;;;;;;7.77;7.13;;;14.40;99.90;;;;;;5014566;28;20207;-77
2024/04/02 08:34:13;;;;;;;7.40;6.90;;;14.60;99.90;;;;;;5032177;28;20273;-77
2024/04/02 08:36:40;;;;;;;5.37;4.97;;;14.60;99.90;;;;;;5032346;28;20205;-77
2024/04/02 08:39:06;;;;;;;6.30;5.90;;;14.60;99.90;;;;;;5032129;28;20640;-77
2024/04/02 08:41:38;;;;;;;6.17;5.77;;;14.50;99.90;;;;;;5031928;28;20227;-76
2024/04/02 08:44:04;;;;;;;3.80;3.60;;;14.70;99.90;;;;;;5014424;28;20640;-78
2024/04/02 08:46:33;;;;;;;4.97;3.97;;;15.00;99.90;;;;;;5031611;28;20670;-77
2024/04/02 08:48:59;;;;;;;4.67;3.60;;;15.10;99.90;;;;;;5014586;28;20202;-78
2024/04/02 08:51:29;;;;;;;2.10;2.00;;;14.90;99.90;;;;;;5032594;28;20199;-76
2024/04/02 08:53:55;;;;;;;3.40;2.17;;;14.60;99.90;;;;;;5031736;28;20210;-77
2024/04/02 08:56:22;;;;;;;2.47;1.90;;;14.40;99.90;;;;;;5032091;28;20199;-78
2024/04/02 08:58:49;;;;;;;3.60;2.40;;;14.00;99.90;;;;;;5014138;28;20226;-77
2024/04/02 09:01:15;;;;;;;7.77;7.17;;;13.90;99.90;;;;;;5031329;28;20238;-77
2024/04/02 09:03:42;;;;;;;8.17;7.50;;;13.60;99.90;;;;;;5031380;28;20218;-76
2024/04/02 09:06:08;;;;;;;6.60;6.00;;;13.60;99.90;;;;;;5031912;28;20211;-77
2024/04/02 09:08:44;;;;;;;6.13;5.40;;;13.70;99.90;;;;;;5012700;28;20204;-77
2024/04/02 09:11:10;;;;;;;6.03;5.53;;;14.10;99.90;;;;;;5014498;28;20201;-77
2024/04/02 09:13:37;;;;;;;5.20;4.80;;;14.20;99.90;;;;;;5025217;28;20576;-77
2024/04/02 09:16:03;;;;;;;8.10;7.40;;;14.60;99.90;;;;;;5031582;28;20199;-76
2024/04/02 09:18:34;;;;;;;8.53;7.73;;;14.60;99.90;;;;;;5016071;28;20206;-76
2024/04/02 09:21:01;;;;;;;7.60;6.90;;;14.70;99.90;;;;;;5035983;28;20209;-77
2024/04/02 09:23:28;;;;;;;7.80;7.20;;;14.90;99.90;;;;;;5035359;28;20619;-77
2024/04/02 09:25:56;;;;;;;8.03;7.33;;;14.90;99.90;;;;;;5027600;28;20254;-77
2024/04/02 09:28:22;;;;;;;7.50;6.80;;;14.80;99.90;;;;;;5018146;28;20200;-77
2024/04/02 09:30:49;;;;;;;7.03;6.40;;;14.50;99.90;;;;;;5035195;28;20265;-76
2024/04/02 09:33:17;;;;;;;8.03;7.30;;;14.70;99.90;;;;;;5035049;28;20595;-77
2024/04/02 09:36:05;;;;;;;7.10;6.50;;;15.10;99.90;;;;;;5017991;28;20199;-77
2024/04/02 09:38:33;;;;;;;6.73;6.33;;;15.60;99.90;;;;;;5034913;28;20215;-78
2024/04/02 09:41:01;;;;;;;7.23;6.37;;;16.00;99.90;;;;;;5018073;28;20196;-78
2024/04/02 09:43:30;;;;;;;7.43;6.93;;;16.30;99.90;;;;;;5035392;28;20246;-77
2024/04/02 09:45:59;;;;;;;6.30;5.80;;;16.50;99.90;;;;;;5035113;28;20192;-77
2024/04/02 09:48:30;;;;;;;5.70;5.20;;;16.70;99.90;;;;;;5035489;28;20183;-77
2024/04/02 09:50:57;;;;;;;6.70;6.00;;;16.70;99.90;;;;;;5017574;28;20201;-77
2024/04/02 09:53:25;;;;;;;7.27;6.67;;;16.60;99.90;;;;;;5034959;28;20301;-77
2024/04/02 09:55:54;;;;;;;6.80;6.20;;;16.90;99.90;;;;;;5016868;28;20205;-77
2024/04/02 09:58:22;;;;;;;6.70;6.03;;;17.00;99.90;;;;;;5017626;28;20200;-77
2024/04/02 10:00:52;;;;;;;5.77;5.27;;;16.80;99.90;;;;;;5017110;28;20214;-77
2024/04/02 10:03:22;;;;;;;6.47;5.87;;;16.80;99.90;;;;;;5034904;28;20250;-78
2024/04/02 10:05:49;;;;;;;6.90;6.30;;;16.80;99.90;;;;;;5035218;28;20196;-78
2024/04/02 10:08:16;;;;;;;6.80;6.10;;;16.60;99.90;;;;;;5017648;28;20204;-78
2024/04/02 10:10:42;;;;;;;6.10;5.80;;;16.70;99.90;;;;;;5034726;28;20211;-78
2024/04/02 10:13:10;;;;;;;6.67;6.27;;;16.90;99.90;;;;;;5035338;28;20242;-79
2024/04/02 10:15:38;;;;;;;7.17;6.60;;;16.70;99.90;;;;;;5034013;28;20289;-78
2024/04/02 10:18:05;;;;;;;6.97;6.37;;;16.60;99.90;;;;;;5035290;28;20728;-78
2024/04/02 10:20:33;;;;;;;7.10;6.60;;;16.50;99.90;;;;;;5016803;28;20257;-78
2024/04/02 10:23:01;;;;;;;6.97;6.37;;;16.50;99.90;;;;;;5017310;28;20222;-77
2024/04/02 10:25:31;;;;;;;6.40;5.80;;;16.50;99.90;;;;;;5035249;28;20198;-78
2024/04/02 10:28:03;;;;;;;7.40;6.73;;;16.40;99.90;;;;;;5017122;28;20647;-78
2024/04/02 10:30:32;;;;;;;7.00;6.50;;;16.20;99.90;;;;;;5017329;28;20216;-79
2024/04/02 10:33:00;;;;;;;5.93;5.57;;;16.20;99.90;;;;;;5017122;28;20313;-78
2024/04/02 10:35:28;;;;;;;6.50;6.10;;;16.20;99.90;;;;;;5017573;28;20554;-78
2024/04/02 10:37:56;;;;;;;6.40;6.00;;;16.40;99.90;;;;;;5034670;28;20205;-78
2024/04/02 10:40:23;;;;;;;7.07;6.57;;;16.60;99.90;;;;;;5017707;28;20574;-79
2024/04/02 10:42:50;;;;;;;6.57;6.17;;;16.70;99.90;;;;;;5033764;28;20485;-79
2024/04/02 10:45:18;;;;;;;6.67;6.27;;;16.70;99.90;;;;;;5016461;28;20188;-79
2024/04/02 10:47:48;;;;;;;6.63;6.13;;;16.90;99.90;;;;;;5016436;28;20228;-79
2024/04/02 10:50:17;;;;;;;6.90;6.40;;;17.00;99.90;;;;;;5034878;28;20199;-78
2024/04/02 10:52:43;;;;;;;6.50;6.10;;;17.10;99.90;;;;;;5034448;28;20664;-78
2024/04/02 10:55:10;;;;;;;7.20;6.70;;;17.10;99.90;;;;;;5034385;28;20189;-78
2024/04/02 10:57:38;;;;;;;6.60;6.20;;;17.20;99.90;;;;;;5016404;28;20256;-78
2024/04/02 11:00:06;;;;;;;7.17;6.70;;;17.30;99.90;;;;;;5016979;28;20198;-78
2024/04/02 11:02:32;;;;;;;7.97;7.20;;;17.20;99.90;;;;;;5016377;28;20653;-78
2024/04/02 11:04:59;;;;;;;7.53;7.00;;;17.00;99.90;;;;;;5033951;28;20207;-79
2024/04/02 11:07:28;;;;;;;7.10;6.70;;;16.80;99.90;;;;;;5016713;28;20617;-78
2024/04/02 11:09:56;;;;;;;7.50;7.00;;;16.20;99.90;;;;;;5034302;28;20204;-78
2024/04/02 11:12:22;;;;;;;7.20;6.80;;;15.70;99.90;;;;;;5034207;28;20615;-78
2024/04/02 11:14:50;;;;;;;7.37;6.77;;;15.30;99.90;;;;;;5015628;28;20314;-78
2024/04/02 11:17:15;;;;;;;7.30;6.90;;;15.10;99.90;;;;;;5016457;28;20270;-78
2024/04/02 11:19:42;;;;;;;3.10;2.90;;;14.90;99.90;;;;;;5033446;28;20203;-77
2024/04/02 11:25:03;;;;;;;4.43;3.20;;;14.50;99.90;;;;;;5032678;28;20285;-77
2024/04/02 11:27:32;;;;;;;7.20;6.60;;;14.30;99.90;;;;;;5017966;28;20206;-79
2024/04/02 11:29:59;;;;;;;7.00;6.50;;;14.30;99.90;;;;;;5017806;28;20261;-81
2024/04/02 11:32:25;;;;;;;6.60;6.10;;;14.30;99.90;;;;;;5025879;28;20278;-78
2024/04/02 11:34:57;;;;;;;6.50;6.00;;;14.20;99.90;;;;;;5029350;28;20694;-78
2024/04/02 11:37:23;;;;;;;7.70;7.00;;;14.10;99.90;;;;;;5015020;28;20660;-78
2024/04/02 11:39:50;;;;;;;7.10;6.50;;;14.10;99.90;;;;;;5032991;28;20229;-77
2024/04/02 11:42:17;;;;;;;6.50;6.10;;;14.40;99.90;;;;;;5032509;28;20589;-77
2024/04/02 11:44:44;;;;;;;6.90;6.40;;;14.50;99.90;;;;;;5032398;28;20597;-77
2024/04/02 11:47:12;;;;;;;6.70;6.30;;;14.60;99.90;;;;;;5032267;28;20608;-77
2024/04/02 11:49:43;;;;;;;6.63;6.23;;;14.80;99.90;;;;;;5033541;28;20197;-79
2024/04/02 11:52:09;;;;;;;6.43;6.03;;;14.90;99.90;;;;;;5015347;28;20253;-78
2024/04/02 11:54:36;;;;;;;6.60;6.10;;;15.00;99.90;;;;;;5031699;28;20311;-75
2024/04/02 12:02:40;;;;;;;6.47;6.00;;;15.30;99.90;;;;;;5014574;28;20213;-76
2024/04/02 12:05:08;;;;;;;4.57;4.17;;;15.30;99.90;;;;;;5031692;28;20187;-76
2024/04/02 12:07:35;;;;;;;2.40;2.30;;;15.30;99.90;;;;;;5031568;28;20204;-76
2024/04/02 12:10:02;;;;;;;5.30;4.97;;;15.40;99.90;;;;;;5013933;28;20574;-76
2024/04/02 12:12:30;;;;;;;4.80;4.50;;;15.40;99.90;;;;;;5013920;28;20195;-77
2024/04/02 12:14:57;;;;;;;6.17;5.87;;;15.20;99.90;;;;;;5007560;28;20721;-77
2024/04/02 12:17:25;;;;;;;4.87;4.60;;;15.10;99.90;;;;;;5024177;28;20555;-77
2024/04/02 12:19:51;;;;;;;2.80;2.50;;;15.10;99.90;;;;;;5014546;28;20200;-77
2024/04/02 12:22:18;;;;;;;5.83;5.43;;;15.40;99.90;;;;;;5009946;28;20188;-77
2024/04/02 12:24:44;;;;;;;6.33;5.93;;;15.60;99.90;;;;;;5013932;28;20228;-77
2024/04/02 12:27:11;;;;;;;6.23;5.83;;;15.70;99.90;;;;;;5023708;28;20203;-75
2024/04/02 12:29:36;;;;;;;4.90;4.50;;;15.90;99.90;;;;;;5031723;28;20207;-75
2024/04/02 12:32:07;;;;;;;2.40;2.30;;;16.00;99.90;;;;;;5031240;28;20218;-76
2024/04/02 12:34:33;;;;;;;3.20;2.97;;;15.90;99.90;;;;;;5021093;28;20216;-75
2024/04/02 12:37:00;;;;;;;2.20;2.00;;;15.90;99.90;;;;;;5013568;28;20622;-75
2024/04/02 12:39:26;;;;;;;2.33;1.90;;;15.90;99.90;;;;;;5031050;28;20215;-75
2024/04/02 12:41:53;;;;;;;4.57;3.43;;;15.70;99.90;;;;;;5031519;28;20230;-77
2024/04/02 12:44:19;;;;;;;4.20;4.00;;;15.60;99.90;;;;;;5014468;28;20569;-76
2024/04/02 12:46:46;;;;;;;2.57;2.37;;;15.60;99.90;;;;;;5013482;28;20258;-76
2024/04/02 12:49:13;;;;;;;3.20;2.90;;;15.60;99.90;;;;;;5031923;28;20195;-75
2024/04/02 12:51:40;;;;;;;3.27;3.07;;;15.70;99.90;;;;;;5013256;28;20204;-75
2024/04/02 12:54:06;;;;;;;5.60;5.20;;;15.70;99.90;;;;;;5012314;28;20281;-75
2024/04/02 12:56:33;;;;;;;3.47;3.23;;;15.70;99.90;;;;;;5013381;28;20204;-75
2024/04/02 12:58:59;;;;;;;3.10;2.93;;;15.60;99.90;;;;;;5031138;28;20678;-75
2024/04/02 13:01:27;;;;;;;4.40;4.00;;;15.50;99.90;;;;;;5031300;28;20193;-76